sensor_id;sensor_type;location;lat;lon;timestamp;temperature;humidity
54429;DHT22;40337;52.978;6.310;2023-06-04T00:00:16;11.80;99.90
54429;DHT22;40337;52.978;6.310;2023-06-04T00:02:42;11.70;99.90
54429;DHT22;40337;52.978;6.310;2023-06-04T00:05:08;11.70;99.90
54429;DHT22;40337;52.978;6.310;2023-06-04T00:07:34;11.70;99.90
54429;DHT22;40337;52.978;6.310;2023-06-04T00:09:59;11.70;99.90
54429;DHT22;40337;52.978;6.310;2023-06-04T00:12:25;11.70;99.90
54429;DHT22;40337;52.978;6.310;2023-06-04T00:14:51;11.80;99.90
54429;DHT22;40337;52.978;6.310;2023-06-04T00:17:16;11.80;99.90
54429;DHT22;40337;52.978;6.310;2023-06-04T00:19:42;11.70;99.90
54429;DHT22;40337;52.978;6.310;2023-06-04T00:22:08;11.60;99.90
54429;DHT22;40337;52.978;6.310;2023-06-04T00:24:35;11.60;99.90
54429;DHT22;40337;52.978;6.310;2023-06-04T00:27:00;11.60;99.90
54429;DHT22;40337;52.978;6.310;2023-06-04T00:29:26;11.60;99.90
54429;DHT22;40337;52.978;6.310;2023-06-04T00:31:52;11.50;99.90
54429;DHT22;40337;52.978;6.310;2023-06-04T00:34:18;11.50;99.90
54429;DHT22;40337;52.978;6.310;2023-06-04T00:36:44;11.50;99.90
54429;DHT22;40337;52.978;6.310;2023-06-04T00:39:09;11.50;99.90
54429;DHT22;40337;52.978;6.310;2023-06-04T00:41:35;11.50;99.90
54429;DHT22;40337;52.978;6.310;2023-06-04T00:44:01;11.50;99.90
54429;DHT22;40337;52.978;6.310;2023-06-04T00:46:28;11.50;99.90
54429;DHT22;40337;52.978;6.310;2023-06-04T00:48:54;11.50;99.90
54429;DHT22;40337;52.978;6.310;2023-06-04T00:51:21;11.50;99.90
54429;DHT22;40337;52.978;6.310;2023-06-04T00:53:50;11.40;99.90
54429;DHT22;40337;52.978;6.310;2023-06-04T00:56:15;11.40;99.90
54429;DHT22;40337;52.978;6.310;2023-06-04T00:58:41;11.40;99.90
54429;DHT22;40337;52.978;6.310;2023-06-04T01:04:00;11.40;99.90
54429;DHT22;40337;52.978;6.310;2023-06-04T01:06:42;11.40;99.90
54429;DHT22;40337;52.978;6.310;2023-06-04T01:09:10;11.40;99.90
54429;DHT22;40337;52.978;6.310;2023-06-04T01:11:37;11.30;99.90
54429;DHT22;40337;52.978;6.310;2023-06-04T01:14:05;11.30;99.90
54429;DHT22;40337;52.978;6.310;2023-06-04T01:16:45;11.20;99.90
54429;DHT22;40337;52.978;6.310;2023-06-04T01:22:17;11.20;99.90
54429;DHT22;40337;52.978;6.310;2023-06-04T01:24:53;11.20;99.90
54429;DHT22;40337;52.978;6.310;2023-06-04T01:27:22;11.10;99.90
54429;DHT22;40337;52.978;6.310;2023-06-04T01:29:48;11.00;99.90
54429;DHT22;40337;52.978;6.310;2023-06-04T01:32:16;11.00;99.90
54429;DHT22;40337;52.978;6.310;2023-06-04T01:34:46;10.90;99.90
54429;DHT22;40337;52.978;6.310;2023-06-04T01:37:11;11.00;99.90
54429;DHT22;40337;52.978;6.310;2023-06-04T01:39:37;11.00;99.90
54429;DHT22;40337;52.978;6.310;2023-06-04T01:42:03;11.00;99.90
54429;DHT22;40337;52.978;6.310;2023-06-04T01:44:29;11.00;99.90
54429;DHT22;40337;52.978;6.310;2023-06-04T01:46:54;11.00;99.90
54429;DHT22;40337;52.978;6.310;2023-06-04T01:49:20;11.00;99.90
54429;DHT22;40337;52.978;6.310;2023-06-04T01:51:46;11.00;99.90
54429;DHT22;40337;52.978;6.310;2023-06-04T01:54:11;10.90;99.90
54429;DHT22;40337;52.978;6.310;2023-06-04T01:56:37;10.80;99.90
54429;DHT22;40337;52.978;6.310;2023-06-04T01:59:02;10.70;99.90
54429;DHT22;40337;52.978;6.310;2023-06-04T02:01:29;10.70;99.90
54429;DHT22;40337;52.978;6.310;2023-06-04T02:03:54;10.70;99.90
54429;DHT22;40337;52.978;6.310;2023-06-04T02:06:20;10.60;99.90
54429;DHT22;40337;52.978;6.310;2023-06-04T02:08:46;10.70;99.90
54429;DHT22;40337;52.978;6.310;2023-06-04T02:11:11;10.70;99.90
54429;DHT22;40337;52.978;6.310;2023-06-04T02:13:37;10.70;99.90
54429;DHT22;40337;52.978;6.310;2023-06-04T02:16:03;10.70;99.90
54429;DHT22;40337;52.978;6.310;2023-06-04T02:18:28;10.60;99.90
54429;DHT22;40337;52.978;6.310;2023-06-04T02:20:56;10.60;99.90
54429;DHT22;40337;52.978;6.310;2023-06-04T02:23:22;10.60;99.90
54429;DHT22;40337;52.978;6.310;2023-06-04T02:25:47;10.60;99.90
54429;DHT22;40337;52.978;6.310;2023-06-04T02:28:15;10.60;99.90
54429;DHT22;40337;52.978;6.310;2023-06-04T02:30:41;10.60;99.90
54429;DHT22;40337;52.978;6.310;2023-06-04T02:33:07;10.60;99.90
54429;DHT22;40337;52.978;6.310;2023-06-04T02:35:35;10.60;99.90
54429;DHT22;40337;52.978;6.310;2023-06-04T02:38:01;10.50;99.90
54429;DHT22;40337;52.978;6.310;2023-06-04T02:40:30;10.50;99.90
54429;DHT22;40337;52.978;6.310;2023-06-04T02:42:56;10.60;99.90
54429;DHT22;40337;52.978;6.310;2023-06-04T02:45:22;10.60;99.90
54429;DHT22;40337;52.978;6.310;2023-06-04T02:47:48;10.60;99.90
54429;DHT22;40337;52.978;6.310;2023-06-04T02:50:14;10.60;99.90
54429;DHT22;40337;52.978;6.310;2023-06-04T02:52:41;10.60;99.90
54429;DHT22;40337;52.978;6.310;2023-06-04T02:55:07;10.60;99.90
54429;DHT22;40337;52.978;6.310;2023-06-04T02:57:34;10.60;99.90
54429;DHT22;40337;52.978;6.310;2023-06-04T03:00:00;10.60;99.90
54429;DHT22;40337;52.978;6.310;2023-06-04T03:02:26;10.50;99.90
54429;DHT22;40337;52.978;6.310;2023-06-04T03:04:53;10.50;99.90
54429;DHT22;40337;52.978;6.310;2023-06-04T03:07:20;10.50;99.90
54429;DHT22;40337;52.978;6.310;2023-06-04T03:09:48;10.50;99.90
54429;DHT22;40337;52.978;6.310;2023-06-04T03:12:14;10.50;99.90
54429;DHT22;40337;52.978;6.310;2023-06-04T03:14:40;10.40;99.90
54429;DHT22;40337;52.978;6.310;2023-06-04T03:17:05;10.40;99.90
54429;DHT22;40337;52.978;6.310;2023-06-04T03:19:40;10.40;99.90
54429;DHT22;40337;52.978;6.310;2023-06-04T03:22:06;10.40;99.90
54429;DHT22;40337;52.978;6.310;2023-06-04T03:24:34;10.50;99.90
54429;DHT22;40337;52.978;6.310;2023-06-04T03:27:00;10.40;99.90
54429;DHT22;40337;52.978;6.310;2023-06-04T03:29:26;10.40;99.90
54429;DHT22;40337;52.978;6.310;2023-06-04T03:31:52;10.40;99.90
54429;DHT22;40337;52.978;6.310;2023-06-04T03:34:17;10.30;99.90
54429;DHT22;40337;52.978;6.310;2023-06-04T03:36:43;10.30;99.90
54429;DHT22;40337;52.978;6.310;2023-06-04T03:39:08;10.30;99.90
54429;DHT22;40337;52.978;6.310;2023-06-04T03:41:34;10.30;99.90
54429;DHT22;40337;52.978;6.310;2023-06-04T03:43:59;10.30;99.90
54429;DHT22;40337;52.978;6.310;2023-06-04T03:46:25;10.30;99.90
54429;DHT22;40337;52.978;6.310;2023-06-04T03:48:52;10.40;99.90
54429;DHT22;40337;52.978;6.310;2023-06-04T03:51:17;10.40;99.90
54429;DHT22;40337;52.978;6.310;2023-06-04T03:53:43;10.30;99.90
54429;DHT22;40337;52.978;6.310;2023-06-04T03:56:08;10.30;99.90
54429;DHT22;40337;52.978;6.310;2023-06-04T03:58:35;10.30;99.90
54429;DHT22;40337;52.978;6.310;2023-06-04T04:01:01;10.40;99.90
54429;DHT22;40337;52.978;6.310;2023-06-04T04:03:30;10.40;99.90
54429;DHT22;40337;52.978;6.310;2023-06-04T04:05:59;10.30;99.90
54429;DHT22;40337;52.978;6.310;2023-06-04T04:08:25;10.30;99.90
54429;DHT22;40337;52.978;6.310;2023-06-04T04:10:51;10.30;99.90
54429;DHT22;40337;52.978;6.310;2023-06-04T04:13:17;10.40;99.90
54429;DHT22;40337;52.978;6.310;2023-06-04T04:15:42;10.40;99.90
54429;DHT22;40337;52.978;6.310;2023-06-04T04:18:08;10.40;99.90
54429;DHT22;40337;52.978;6.310;2023-06-04T04:20:36;10.40;99.90
54429;DHT22;40337;52.978;6.310;2023-06-04T04:23:01;10.50;99.90
54429;DHT22;40337;52.978;6.310;2023-06-04T04:25:27;10.50;99.90
54429;DHT22;40337;52.978;6.310;2023-06-04T04:27:52;10.50;99.90
54429;DHT22;40337;52.978;6.310;2023-06-04T04:30:21;10.60;99.90
54429;DHT22;40337;52.978;6.310;2023-06-04T04:32:47;10.60;99.90
54429;DHT22;40337;52.978;6.310;2023-06-04T04:35:16;10.60;99.90
54429;DHT22;40337;52.978;6.310;2023-06-04T04:37:46;10.60;99.90
54429;DHT22;40337;52.978;6.310;2023-06-04T04:40:13;10.70;99.90
54429;DHT22;40337;52.978;6.310;2023-06-04T04:42:39;10.70;99.90
54429;DHT22;40337;52.978;6.310;2023-06-04T04:45:05;10.80;99.90
54429;DHT22;40337;52.978;6.310;2023-06-04T04:47:31;10.80;99.90
54429;DHT22;40337;52.978;6.310;2023-06-04T04:49:56;10.90;99.90
54429;DHT22;40337;52.978;6.310;2023-06-04T04:52:22;10.90;99.90
54429;DHT22;40337;52.978;6.310;2023-06-04T04:54:47;10.90;99.90
54429;DHT22;40337;52.978;6.310;2023-06-04T04:57:13;11.00;99.90
54429;DHT22;40337;52.978;6.310;2023-06-04T04:59:38;11.00;99.90
54429;DHT22;40337;52.978;6.310;2023-06-04T05:02:04;11.10;99.90
54429;DHT22;40337;52.978;6.310;2023-06-04T05:04:29;11.10;99.90
54429;DHT22;40337;52.978;6.310;2023-06-04T05:06:55;11.20;99.90
54429;DHT22;40337;52.978;6.310;2023-06-04T05:09:21;11.20;99.90
54429;DHT22;40337;52.978;6.310;2023-06-04T05:11:47;11.30;99.90
54429;DHT22;40337;52.978;6.310;2023-06-04T05:14:13;11.30;99.90
54429;DHT22;40337;52.978;6.310;2023-06-04T05:16:39;11.40;99.90
54429;DHT22;40337;52.978;6.310;2023-06-04T05:19:06;11.50;99.90
54429;DHT22;40337;52.978;6.310;2023-06-04T05:21:31;11.50;99.90
54429;DHT22;40337;52.978;6.310;2023-06-04T05:23:57;11.60;99.90
54429;DHT22;40337;52.978;6.310;2023-06-04T05:26:23;11.60;99.90
54429;DHT22;40337;52.978;6.310;2023-06-04T05:28:51;11.70;99.90
54429;DHT22;40337;52.978;6.310;2023-06-04T05:31:16;11.70;99.90
54429;DHT22;40337;52.978;6.310;2023-06-04T05:33:43;11.80;99.90
54429;DHT22;40337;52.978;6.310;2023-06-04T05:36:09;11.90;99.90
54429;DHT22;40337;52.978;6.310;2023-06-04T05:38:34;11.90;99.90
54429;DHT22;40337;52.978;6.310;2023-06-04T05:41:01;11.90;99.90
54429;DHT22;40337;52.978;6.310;2023-06-04T05:43:27;12.00;99.90
54429;DHT22;40337;52.978;6.310;2023-06-04T05:45:53;12.10;99.90
54429;DHT22;40337;52.978;6.310;2023-06-04T05:48:18;12.10;99.90
54429;DHT22;40337;52.978;6.310;2023-06-04T05:50:44;12.20;99.90
54429;DHT22;40337;52.978;6.310;2023-06-04T05:53:10;12.30;99.90
54429;DHT22;40337;52.978;6.310;2023-06-04T05:55:36;12.30;99.90
54429;DHT22;40337;52.978;6.310;2023-06-04T05:58:01;12.40;99.90
54429;DHT22;40337;52.978;6.310;2023-06-04T06:00:27;12.60;99.90
54429;DHT22;40337;52.978;6.310;2023-06-04T06:02:53;12.80;99.90
54429;DHT22;40337;52.978;6.310;2023-06-04T06:05:19;13.10;99.90
54429;DHT22;40337;52.978;6.310;2023-06-04T06:07:45;13.40;99.90
54429;DHT22;40337;52.978;6.310;2023-06-04T06:10:11;13.70;99.90
54429;DHT22;40337;52.978;6.310;2023-06-04T06:12:37;14.20;99.90
54429;DHT22;40337;52.978;6.310;2023-06-04T06:15:03;14.70;99.90
54429;DHT22;40337;52.978;6.310;2023-06-04T06:17:29;15.20;99.90
54429;DHT22;40337;52.978;6.310;2023-06-04T06:19:55;15.60;99.90
54429;DHT22;40337;52.978;6.310;2023-06-04T06:22:21;15.90;99.90
54429;DHT22;40337;52.978;6.310;2023-06-04T06:24:47;16.20;99.90
54429;DHT22;40337;52.978;6.310;2023-06-04T06:27:14;16.40;99.90
54429;DHT22;40337;52.978;6.310;2023-06-04T06:29:41;16.60;99.90
54429;DHT22;40337;52.978;6.310;2023-06-04T06:32:07;16.70;99.90
54429;DHT22;40337;52.978;6.310;2023-06-04T06:34:33;16.90;99.90
54429;DHT22;40337;52.978;6.310;2023-06-04T06:36:59;17.00;99.90
54429;DHT22;40337;52.978;6.310;2023-06-04T06:39:24;17.10;99.90
54429;DHT22;40337;52.978;6.310;2023-06-04T06:41:50;17.40;99.90
54429;DHT22;40337;52.978;6.310;2023-06-04T06:44:15;17.50;99.90
54429;DHT22;40337;52.978;6.310;2023-06-04T06:46:41;17.70;99.90
54429;DHT22;40337;52.978;6.310;2023-06-04T06:49:07;17.80;99.90
54429;DHT22;40337;52.978;6.310;2023-06-04T06:51:32;17.80;99.90
54429;DHT22;40337;52.978;6.310;2023-06-04T06:53:58;17.90;99.90
54429;DHT22;40337;52.978;6.310;2023-06-04T06:56:23;18.00;99.90
54429;DHT22;40337;52.978;6.310;2023-06-04T06:58:49;18.00;99.90
54429;DHT22;40337;52.978;6.310;2023-06-04T07:01:14;18.10;99.90
54429;DHT22;40337;52.978;6.310;2023-06-04T07:03:40;18.30;99.90
54429;DHT22;40337;52.978;6.310;2023-06-04T07:06:06;18.30;99.90
54429;DHT22;40337;52.978;6.310;2023-06-04T07:08:32;18.40;99.90
54429;DHT22;40337;52.978;6.310;2023-06-04T07:10:59;18.50;99.90
54429;DHT22;40337;52.978;6.310;2023-06-04T07:13:24;18.60;99.90
54429;DHT22;40337;52.978;6.310;2023-06-04T07:15:50;18.70;99.90
54429;DHT22;40337;52.978;6.310;2023-06-04T07:18:16;18.70;99.90
54429;DHT22;40337;52.978;6.310;2023-06-04T07:20:41;18.90;99.90
54429;DHT22;40337;52.978;6.310;2023-06-04T07:23:07;19.00;99.90
54429;DHT22;40337;52.978;6.310;2023-06-04T07:25:33;19.10;99.90
54429;DHT22;40337;52.978;6.310;2023-06-04T07:27:59;19.20;99.90
54429;DHT22;40337;52.978;6.310;2023-06-04T07:30:25;19.40;99.90
54429;DHT22;40337;52.978;6.310;2023-06-04T07:32:51;19.50;99.90
54429;DHT22;40337;52.978;6.310;2023-06-04T07:35:16;19.60;99.90
54429;DHT22;40337;52.978;6.310;2023-06-04T07:37:42;19.70;99.90
54429;DHT22;40337;52.978;6.310;2023-06-04T07:40:14;19.90;99.90
54429;DHT22;40337;52.978;6.310;2023-06-04T07:42:41;20.00;99.90
54429;DHT22;40337;52.978;6.310;2023-06-04T07:45:08;20.20;99.90
54429;DHT22;40337;52.978;6.310;2023-06-04T07:47:35;20.30;99.60
54429;DHT22;40337;52.978;6.310;2023-06-04T07:50:00;20.30;98.60
54429;DHT22;40337;52.978;6.310;2023-06-04T07:52:26;20.30;98.10
54429;DHT22;40337;52.978;6.310;2023-06-04T07:54:52;20.40;98.00
54429;DHT22;40337;52.978;6.310;2023-06-04T07:57:17;20.40;97.60
54429;DHT22;40337;52.978;6.310;2023-06-04T07:59:43;20.60;97.80
54429;DHT22;40337;52.978;6.310;2023-06-04T08:02:08;20.50;97.10
54429;DHT22;40337;52.978;6.310;2023-06-04T08:04:34;20.60;96.70
54429;DHT22;40337;52.978;6.310;2023-06-04T08:07:00;20.70;97.40
54429;DHT22;40337;52.978;6.310;2023-06-04T08:09:26;20.90;97.10
54429;DHT22;40337;52.978;6.310;2023-06-04T08:11:51;21.10;96.50
54429;DHT22;40337;52.978;6.310;2023-06-04T08:14:17;21.20;96.50
54429;DHT22;40337;52.978;6.310;2023-06-04T08:16:42;21.40;96.50
54429;DHT22;40337;52.978;6.310;2023-06-04T08:19:08;21.60;96.30
54429;DHT22;40337;52.978;6.310;2023-06-04T08:21:34;21.70;96.00
54429;DHT22;40337;52.978;6.310;2023-06-04T08:23:59;21.80;96.00
54429;DHT22;40337;52.978;6.310;2023-06-04T08:26:25;22.10;95.40
54429;DHT22;40337;52.978;6.310;2023-06-04T08:28:52;22.10;95.50
54429;DHT22;40337;52.978;6.310;2023-06-04T08:31:18;22.30;95.10
54429;DHT22;40337;52.978;6.310;2023-06-04T08:33:47;22.20;94.10
54429;DHT22;40337;52.978;6.310;2023-06-04T08:36:14;22.10;94.10
54429;DHT22;40337;52.978;6.310;2023-06-04T08:38:40;22.30;94.40
54429;DHT22;40337;52.978;6.310;2023-06-04T08:41:30;22.40;94.10
54429;DHT22;40337;52.978;6.310;2023-06-04T08:43:59;22.50;93.30
54429;DHT22;40337;52.978;6.310;2023-06-04T08:46:30;22.50;93.90
54429;DHT22;40337;52.978;6.310;2023-06-04T08:49:00;22.60;93.20
54429;DHT22;40337;52.978;6.310;2023-06-04T08:51:27;22.70;93.00
54429;DHT22;40337;52.978;6.310;2023-06-04T08:53:53;22.90;92.30
54429;DHT22;40337;52.978;6.310;2023-06-04T08:56:20;23.00;92.30
54429;DHT22;40337;52.978;6.310;2023-06-04T08:58:47;23.20;92.70
54429;DHT22;40337;52.978;6.310;2023-06-04T09:01:14;23.30;91.60
54429;DHT22;40337;52.978;6.310;2023-06-04T09:03:41;23.40;91.40
54429;DHT22;40337;52.978;6.310;2023-06-04T09:06:07;23.50;91.20
54429;DHT22;40337;52.978;6.310;2023-06-04T09:08:35;23.70;90.50
54429;DHT22;40337;52.978;6.310;2023-06-04T09:11:08;23.90;91.50
54429;DHT22;40337;52.978;6.310;2023-06-04T09:13:35;24.10;88.70
54429;DHT22;40337;52.978;6.310;2023-06-04T09:16:05;24.10;87.20
54429;DHT22;40337;52.978;6.310;2023-06-04T09:18:33;24.10;85.00
54429;DHT22;40337;52.978;6.310;2023-06-04T09:23:28;24.10;82.90
54429;DHT22;40337;52.978;6.310;2023-06-04T09:25:54;24.20;82.20
54429;DHT22;40337;52.978;6.310;2023-06-04T09:28:20;24.20;81.50
54429;DHT22;40337;52.978;6.310;2023-06-04T09:30:55;24.30;80.60
54429;DHT22;40337;52.978;6.310;2023-06-04T09:33:20;24.50;80.00
54429;DHT22;40337;52.978;6.310;2023-06-04T09:35:56;24.50;80.70
54429;DHT22;40337;52.978;6.310;2023-06-04T09:38:22;24.50;77.90
54429;DHT22;40337;52.978;6.310;2023-06-04T09:40:48;24.60;78.60
54429;DHT22;40337;52.978;6.310;2023-06-04T09:43:22;24.80;77.50
54429;DHT22;40337;52.978;6.310;2023-06-04T09:45:49;24.90;76.60
54429;DHT22;40337;52.978;6.310;2023-06-04T09:48:21;24.80;76.20
54429;DHT22;40337;52.978;6.310;2023-06-04T09:50:47;24.70;74.60
54429;DHT22;40337;52.978;6.310;2023-06-04T09:53:17;24.80;77.20
54429;DHT22;40337;52.978;6.310;2023-06-04T09:55:43;24.90;77.20
54429;DHT22;40337;52.978;6.310;2023-06-04T09:58:10;25.00;75.80
54429;DHT22;40337;52.978;6.310;2023-06-04T10:00:37;25.20;76.90
54429;DHT22;40337;52.978;6.310;2023-06-04T10:03:02;25.10;75.00
54429;DHT22;40337;52.978;6.310;2023-06-04T10:05:32;25.10;74.50
54429;DHT22;40337;52.978;6.310;2023-06-04T10:08:01;25.20;72.50
54429;DHT22;40337;52.978;6.310;2023-06-04T10:10:28;25.30;74.10
54429;DHT22;40337;52.978;6.310;2023-06-04T10:13:00;25.50;74.50
54429;DHT22;40337;52.978;6.310;2023-06-04T10:15:27;25.50;74.00
54429;DHT22;40337;52.978;6.310;2023-06-04T10:17:54;25.70;73.70
54429;DHT22;40337;52.978;6.310;2023-06-04T10:20:21;25.60;72.80
54429;DHT22;40337;52.978;6.310;2023-06-04T10:22:48;25.60;73.70
54429;DHT22;40337;52.978;6.310;2023-06-04T10:25:14;25.60;73.20
54429;DHT22;40337;52.978;6.310;2023-06-04T10:27:41;25.60;72.80
54429;DHT22;40337;52.978;6.310;2023-06-04T10:30:07;25.70;72.30
54429;DHT22;40337;52.978;6.310;2023-06-04T10:32:34;25.80;72.60
54429;DHT22;40337;52.978;6.310;2023-06-04T10:35:06;25.80;70.60
54429;DHT22;40337;52.978;6.310;2023-06-04T10:37:33;25.90;71.70
54429;DHT22;40337;52.978;6.310;2023-06-04T10:39:59;26.00;72.60
54429;DHT22;40337;52.978;6.310;2023-06-04T10:42:25;26.10;73.20
54429;DHT22;40337;52.978;6.310;2023-06-04T10:44:53;25.90;72.40
54429;DHT22;40337;52.978;6.310;2023-06-04T10:47:23;25.90;71.30
54429;DHT22;40337;52.978;6.310;2023-06-04T10:49:50;26.00;72.00
54429;DHT22;40337;52.978;6.310;2023-06-04T10:52:17;26.00;70.40
54429;DHT22;40337;52.978;6.310;2023-06-04T10:54:44;26.00;70.50
54429;DHT22;40337;52.978;6.310;2023-06-04T10:57:12;26.00;71.30
54429;DHT22;40337;52.978;6.310;2023-06-04T10:59:38;26.10;70.10
54429;DHT22;40337;52.978;6.310;2023-06-04T11:02:07;26.30;70.00
54429;DHT22;40337;52.978;6.310;2023-06-04T11:04:33;26.10;69.80
54429;DHT22;40337;52.978;6.310;2023-06-04T11:07:06;26.00;70.30
54429;DHT22;40337;52.978;6.310;2023-06-04T11:09:48;26.10;70.70
54429;DHT22;40337;52.978;6.310;2023-06-04T11:12:13;26.30;70.20
54429;DHT22;40337;52.978;6.310;2023-06-04T11:14:39;26.40;69.20
54429;DHT22;40337;52.978;6.310;2023-06-04T11:17:09;26.40;69.80
54429;DHT22;40337;52.978;6.310;2023-06-04T11:19:36;26.40;70.40
54429;DHT22;40337;52.978;6.310;2023-06-04T11:22:02;26.40;68.90
54429;DHT22;40337;52.978;6.310;2023-06-04T11:24:27;26.20;68.70
54429;DHT22;40337;52.978;6.310;2023-06-04T11:26:56;26.40;70.60
54429;DHT22;40337;52.978;6.310;2023-06-04T11:29:25;26.30;68.50
54429;DHT22;40337;52.978;6.310;2023-06-04T11:31:50;26.40;68.90
54429;DHT22;40337;52.978;6.310;2023-06-04T11:34:26;26.50;69.20
54429;DHT22;40337;52.978;6.310;2023-06-04T11:36:52;26.60;68.00
54429;DHT22;40337;52.978;6.310;2023-06-04T11:39:19;26.90;67.50
54429;DHT22;40337;52.978;6.310;2023-06-04T11:41:44;26.80;66.60
54429;DHT22;40337;52.978;6.310;2023-06-04T11:44:11;26.90;67.20
54429;DHT22;40337;52.978;6.310;2023-06-04T11:46:43;27.00;67.20
54429;DHT22;40337;52.978;6.310;2023-06-04T11:49:13;27.00;65.00
54429;DHT22;40337;52.978;6.310;2023-06-04T11:51:46;26.80;65.10
54429;DHT22;40337;52.978;6.310;2023-06-04T11:54:11;26.70;65.90
54429;DHT22;40337;52.978;6.310;2023-06-04T11:56:37;26.70;67.00
54429;DHT22;40337;52.978;6.310;2023-06-04T11:59:03;26.80;67.00
54429;DHT22;40337;52.978;6.310;2023-06-04T12:01:29;26.90;68.80
54429;DHT22;40337;52.978;6.310;2023-06-04T12:03:57;27.00;67.60
54429;DHT22;40337;52.978;6.310;2023-06-04T12:06:23;27.10;66.90
54429;DHT22;40337;52.978;6.310;2023-06-04T12:08:50;27.00;66.10
54429;DHT22;40337;52.978;6.310;2023-06-04T12:13:58;26.70;65.40
54429;DHT22;40337;52.978;6.310;2023-06-04T12:16:24;26.70;66.30
54429;DHT22;40337;52.978;6.310;2023-06-04T12:18:50;26.80;67.00
54429;DHT22;40337;52.978;6.310;2023-06-04T12:21:25;26.70;66.10
54429;DHT22;40337;52.978;6.310;2023-06-04T12:24:09;26.70;65.80
54429;DHT22;40337;52.978;6.310;2023-06-04T12:26:36;26.80;65.90
54429;DHT22;40337;52.978;6.310;2023-06-04T12:29:11;26.70;66.20
54429;DHT22;40337;52.978;6.310;2023-06-04T12:31:38;26.60;65.30
54429;DHT22;40337;52.978;6.310;2023-06-04T12:34:04;26.60;64.40
54429;DHT22;40337;52.978;6.310;2023-06-04T12:36:29;26.70;66.10
54429;DHT22;40337;52.978;6.310;2023-06-04T12:38:58;26.80;65.20
54429;DHT22;40337;52.978;6.310;2023-06-04T12:41:24;26.70;64.60
54429;DHT22;40337;52.978;6.310;2023-06-04T12:43:50;26.70;63.90
54429;DHT22;40337;52.978;6.310;2023-06-04T12:46:16;26.80;64.50
54429;DHT22;40337;52.978;6.310;2023-06-04T12:48:42;26.70;65.60
54429;DHT22;40337;52.978;6.310;2023-06-04T12:51:08;26.80;66.00
54429;DHT22;40337;52.978;6.310;2023-06-04T12:53:38;26.70;65.90
54429;DHT22;40337;52.978;6.310;2023-06-04T12:56:03;26.60;65.50
54429;DHT22;40337;52.978;6.310;2023-06-04T12:58:29;26.70;67.40
54429;DHT22;40337;52.978;6.310;2023-06-04T13:00:55;26.70;67.70
54429;DHT22;40337;52.978;6.310;2023-06-04T13:03:21;26.80;67.70
54429;DHT22;40337;52.978;6.310;2023-06-04T13:05:46;26.50;66.70
54429;DHT22;40337;52.978;6.310;2023-06-04T13:08:12;26.60;67.30
54429;DHT22;40337;52.978;6.310;2023-06-04T13:10:37;26.50;67.30
54429;DHT22;40337;52.978;6.310;2023-06-04T13:13:03;26.50;67.90
54429;DHT22;40337;52.978;6.310;2023-06-04T13:15:28;26.50;67.60
54429;DHT22;40337;52.978;6.310;2023-06-04T13:17:54;26.40;67.80
54429;DHT22;40337;52.978;6.310;2023-06-04T13:20:20;26.40;68.20
54429;DHT22;40337;52.978;6.310;2023-06-04T13:22:46;26.40;68.70
54429;DHT22;40337;52.978;6.310;2023-06-04T13:25:12;26.40;68.70
54429;DHT22;40337;52.978;6.310;2023-06-04T13:27:38;26.50;68.30
54429;DHT22;40337;52.978;6.310;2023-06-04T13:30:04;26.30;68.90
54429;DHT22;40337;52.978;6.310;2023-06-04T13:32:31;26.40;68.50
54429;DHT22;40337;52.978;6.310;2023-06-04T13:34:56;26.40;68.70
54429;DHT22;40337;52.978;6.310;2023-06-04T13:37:22;26.40;68.10
54429;DHT22;40337;52.978;6.310;2023-06-04T13:39:48;26.50;69.10
54429;DHT22;40337;52.978;6.310;2023-06-04T13:42:13;26.40;67.90
54429;DHT22;40337;52.978;6.310;2023-06-04T13:44:39;26.40;67.90
54429;DHT22;40337;52.978;6.310;2023-06-04T13:47:04;26.50;68.60
54429;DHT22;40337;52.978;6.310;2023-06-04T13:49:34;26.40;68.80
54429;DHT22;40337;52.978;6.310;2023-06-04T13:52:00;26.10;68.90
54429;DHT22;40337;52.978;6.310;2023-06-04T13:54:25;26.20;69.30
54429;DHT22;40337;52.978;6.310;2023-06-04T13:56:51;26.10;69.80
54429;DHT22;40337;52.978;6.310;2023-06-04T13:59:17;26.00;69.00
54429;DHT22;40337;52.978;6.310;2023-06-04T14:01:42;26.00;68.70
54429;DHT22;40337;52.978;6.310;2023-06-04T14:04:08;25.80;68.90
54429;DHT22;40337;52.978;6.310;2023-06-04T14:06:37;25.80;69.40
54429;DHT22;40337;52.978;6.310;2023-06-04T14:09:03;25.90;70.50
54429;DHT22;40337;52.978;6.310;2023-06-04T14:11:29;25.90;69.80
54429;DHT22;40337;52.978;6.310;2023-06-04T14:13:55;25.70;70.40
54429;DHT22;40337;52.978;6.310;2023-06-04T14:16:21;25.70;71.10
54429;DHT22;40337;52.978;6.310;2023-06-04T14:18:46;25.80;71.00
54429;DHT22;40337;52.978;6.310;2023-06-04T14:21:12;25.80;70.70
54429;DHT22;40337;52.978;6.310;2023-06-04T14:23:38;25.70;69.80
54429;DHT22;40337;52.978;6.310;2023-06-04T14:26:03;25.50;69.60
54429;DHT22;40337;52.978;6.310;2023-06-04T14:28:29;25.20;70.70
54429;DHT22;40337;52.978;6.310;2023-06-04T14:30:55;25.30;71.50
54429;DHT22;40337;52.978;6.310;2023-06-04T14:33:21;25.30;72.40
54429;DHT22;40337;52.978;6.310;2023-06-04T14:35:47;25.20;71.60
54429;DHT22;40337;52.978;6.310;2023-06-04T14:38:13;25.10;71.80
54429;DHT22;40337;52.978;6.310;2023-06-04T14:40:39;25.00;71.80
54429;DHT22;40337;52.978;6.310;2023-06-04T14:43:07;24.80;72.10
54429;DHT22;40337;52.978;6.310;2023-06-04T14:45:32;24.80;73.20
54429;DHT22;40337;52.978;6.310;2023-06-04T14:47:58;24.70;73.00
54429;DHT22;40337;52.978;6.310;2023-06-04T14:50:23;24.50;72.50
54429;DHT22;40337;52.978;6.310;2023-06-04T14:52:50;24.50;73.40
54429;DHT22;40337;52.978;6.310;2023-06-04T14:55:15;24.50;73.70
54429;DHT22;40337;52.978;6.310;2023-06-04T14:57:42;24.30;74.10
54429;DHT22;40337;52.978;6.310;2023-06-04T15:00:08;24.30;73.50
54429;DHT22;40337;52.978;6.310;2023-06-04T15:02:34;24.20;74.10
54429;DHT22;40337;52.978;6.310;2023-06-04T15:04:59;24.10;74.20
54429;DHT22;40337;52.978;6.310;2023-06-04T15:07:25;23.90;74.20
54429;DHT22;40337;52.978;6.310;2023-06-04T15:09:50;23.90;74.80
54429;DHT22;40337;52.978;6.310;2023-06-04T15:12:16;23.80;75.20
54429;DHT22;40337;52.978;6.310;2023-06-04T15:14:43;23.60;75.40
54429;DHT22;40337;52.978;6.310;2023-06-04T15:17:09;23.50;75.40
54429;DHT22;40337;52.978;6.310;2023-06-04T15:19:35;23.50;76.00
54429;DHT22;40337;52.978;6.310;2023-06-04T15:22:01;23.50;75.60
54429;DHT22;40337;52.978;6.310;2023-06-04T15:24:26;23.40;75.90
54429;DHT22;40337;52.978;6.310;2023-06-04T15:26:52;23.30;75.90
54429;DHT22;40337;52.978;6.310;2023-06-04T15:29:18;23.30;76.60
54429;DHT22;40337;52.978;6.310;2023-06-04T15:31:43;23.20;77.10
54429;DHT22;40337;52.978;6.310;2023-06-04T15:34:09;23.20;76.60
54429;DHT22;40337;52.978;6.310;2023-06-04T15:36:34;23.10;76.90